createdAt,value
2022-08-28T00:02:17.641Z,7.10
2022-08-28T00:04:46.625Z,5.95
2022-08-28T00:07:16.625Z,6.55
2022-08-28T00:09:44.992Z,7.20
2022-08-28T00:12:13.605Z,6.47
2022-08-28T00:14:42.134Z,6.35
2022-08-28T00:17:10.384Z,7.80
2022-08-28T00:19:39.007Z,6.85
2022-08-28T00:22:07.564Z,8.68
2022-08-28T00:24:37.589Z,7.15
2022-08-28T00:27:24.321Z,8.98
2022-08-28T00:29:53.263Z,8.13
2022-08-28T00:32:25.147Z,8.30
2022-08-28T00:34:53.756Z,6.95
2022-08-28T00:37:24.601Z,8.85
2022-08-28T00:39:54.982Z,12.70
2022-08-28T00:42:24.941Z,7.47
2022-08-28T00:44:53.542Z,9.50
2022-08-28T00:47:26.502Z,9.43
2022-08-28T00:49:56.472Z,9.57
2022-08-28T00:52:26.885Z,8.98
2022-08-28T00:55:00.985Z,10.25
2022-08-28T00:57:34.972Z,7.82
2022-08-28T01:00:07.970Z,9.30
2022-08-28T01:02:36.251Z,10.52
2022-08-28T01:05:09.641Z,10.10
2022-08-28T01:07:38.088Z,8.68
2022-08-28T01:10:11.598Z,8.88
2022-08-28T01:12:40.318Z,8.27
2022-08-28T01:15:13.978Z,9.93
2022-08-28T01:17:48.034Z,10.13
2022-08-28T01:20:21.075Z,7.13
2022-08-28T01:22:59.172Z,6.15
2022-08-28T01:25:33.951Z,8.98
2022-08-28T01:28:05.178Z,7.45
2022-08-28T01:30:34.148Z,8.20
2022-08-28T01:33:02.491Z,5.95
2022-08-28T01:35:35.756Z,7.05
2022-08-28T01:38:05.014Z,6.82
2022-08-28T01:40:40.646Z,8.70
2022-08-28T01:43:11.863Z,5.15
2022-08-28T01:45:41.771Z,7.60
2022-08-28T01:48:10.885Z,9.40
2022-08-28T01:50:39.547Z,8.50
2022-08-28T01:53:12.296Z,4.65
2022-08-28T01:55:43.414Z,5.88
2022-08-28T01:58:13.744Z,6.55
2022-08-28T02:00:42.685Z,7.72
2022-08-28T02:03:12.837Z,6.93
2022-08-28T02:05:41.890Z,5.78
2022-08-28T02:08:10.893Z,7.20
2022-08-28T02:10:43.619Z,6.45
2022-08-28T02:13:13.850Z,7.53
2022-08-28T02:15:44.277Z,5.22
2022-08-28T02:18:14.476Z,6.35
2022-08-28T02:20:43.779Z,6.82
2022-08-28T02:23:13.599Z,7.03
2022-08-28T02:25:43.498Z,8.98
2022-08-28T02:28:11.872Z,6.57
2022-08-28T02:30:41.262Z,5.93
2022-08-28T02:33:09.614Z,5.43
2022-08-28T02:35:40.322Z,6.22
2022-08-28T02:38:09.210Z,6.03
2022-08-28T02:40:38.098Z,10.88
2022-08-28T02:43:08.046Z,5.60
2022-08-28T02:45:36.794Z,9.70
2022-08-28T02:48:16.674Z,5.22
2022-08-28T02:50:46.221Z,5.25
2022-08-28T02:53:15.310Z,10.07
2022-08-28T02:55:43.685Z,6.22
2022-08-28T02:58:13.401Z,7.57
2022-08-28T03:00:42.029Z,6.85
2022-08-28T03:03:10.349Z,5.57
2022-08-28T03:05:38.678Z,8.95
2022-08-28T03:08:07.079Z,7.70
2022-08-28T03:10:35.717Z,6.38
2022-08-28T03:13:04.194Z,7.93
2022-08-28T03:15:33.852Z,6.43
2022-08-28T03:18:02.093Z,7.78
2022-08-28T03:20:36.878Z,8.27
2022-08-28T03:23:28.736Z,7.63
2022-08-28T03:26:00.313Z,6.65
2022-08-28T03:28:32.122Z,5.57
2022-08-28T03:31:02.589Z,8.50
2022-08-28T03:33:31.066Z,6.10
2022-08-28T03:35:59.831Z,8.50
2022-08-28T03:38:28.607Z,7.97
2022-08-28T03:40:57.277Z,5.72
2022-08-28T03:43:27.411Z,6.97
2022-08-28T03:45:59.497Z,7.93
2022-08-28T03:48:33.145Z,8.20
2022-08-28T03:51:02.351Z,6.47
2022-08-28T03:53:31.381Z,5.63
2022-08-28T03:56:00.011Z,9.20
2022-08-28T03:58:29.172Z,9.95
2022-08-28T04:00:57.599Z,4.30
2022-08-28T04:03:25.923Z,8.70
2022-08-28T04:05:55.532Z,9.18
2022-08-28T04:08:24.043Z,5.60
2022-08-28T04:10:53.136Z,7.78
2022-08-28T04:13:23.793Z,8.43
2022-08-28T04:16:06.383Z,5.82
2022-08-28T04:18:35.773Z,6.68
2022-08-28T04:21:09.337Z,5.28
2022-08-28T04:23:39.427Z,6.60
2022-08-28T04:26:08.872Z,5.35
2022-08-28T04:28:38.116Z,6.47
2022-08-28T04:31:08.071Z,7.75
2022-08-28T04:33:37.472Z,8.07
2022-08-28T04:36:11.153Z,5.43
2022-08-28T04:38:43.760Z,7.97
2022-08-28T04:41:16.466Z,10.38
2022-08-28T04:43:45.796Z,5.45
2022-08-28T04:46:15.878Z,8.38
2022-08-28T04:48:44.187Z,7.25
2022-08-28T04:51:15.322Z,6.97
2022-08-28T04:53:44.036Z,7.28
2022-08-28T04:56:14.823Z,7.95
2022-08-28T04:58:45.529Z,6.60
2022-08-28T05:01:18.778Z,7.53
2022-08-28T05:03:48.418Z,7.05
2022-08-28T05:06:18.176Z,8.15
2022-08-28T05:08:46.481Z,7.60
2022-08-28T05:11:33.208Z,8.25
2022-08-28T05:14:05.520Z,7.78
2022-08-28T05:16:34.720Z,5.30
2022-08-28T05:19:03.714Z,9.18
2022-08-28T05:21:33.365Z,6.93
2022-08-28T05:24:01.837Z,8.77
2022-08-28T05:26:30.382Z,10.20
2022-08-28T05:29:00.403Z,10.13
2022-08-28T05:31:31.428Z,6.15
2022-08-28T05:34:01.519Z,8.23
2022-08-28T05:36:33.323Z,6.97
2022-08-28T05:39:04.827Z,5.25
2022-08-28T05:41:34.506Z,9.77
2022-08-28T05:44:08.290Z,8.38
2022-08-28T05:46:39.785Z,6.65
2022-08-28T05:49:10.277Z,7.80
2022-08-28T05:51:42.185Z,6.50
2022-08-28T05:54:11.237Z,11.88
2022-08-28T05:56:42.220Z,7.47
2022-08-28T05:59:12.530Z,9.88
2022-08-28T06:01:43.555Z,9.23
2022-08-28T06:04:15.817Z,8.52
2022-08-28T06:06:46.402Z,9.13
2022-08-28T06:09:18.014Z,8.10
2022-08-28T06:11:47.433Z,7.68
2022-08-28T06:14:20.613Z,8.05
2022-08-28T06:16:53.506Z,8.50
2022-08-28T06:19:24.620Z,11.80
2022-08-28T06:21:57.968Z,7.50
2022-08-28T06:24:27.503Z,11.18
2022-08-28T06:26:58.682Z,6.57
2022-08-28T06:29:29.245Z,11.45
2022-08-28T06:32:00.971Z,9.15
2022-08-28T06:34:29.994Z,9.02
2022-08-28T06:37:00.686Z,10.95
2022-08-28T06:39:28.951Z,7.50
2022-08-28T06:41:57.144Z,11.07
2022-08-28T06:44:25.608Z,7.70
2022-08-28T06:46:55.652Z,7.63
2022-08-28T06:49:24.370Z,10.10
2022-08-28T06:51:53.161Z,8.68
2022-08-28T06:54:23.626Z,12.60
2022-08-28T06:56:52.274Z,10.63
2022-08-28T06:59:20.546Z,8.27
2022-08-28T07:01:49.349Z,8.68
2022-08-28T07:04:17.688Z,8.05
2022-08-28T07:06:53.757Z,9.02
2022-08-28T07:09:25.331Z,8.13
2022-08-28T07:11:54.552Z,9.77
2022-08-28T07:14:23.447Z,6.88
2022-08-28T07:16:54.300Z,7.50
2022-08-28T07:19:22.634Z,8.30
2022-08-28T07:21:50.904Z,9.00
2022-08-28T07:24:20.206Z,11.13
2022-08-28T07:26:49.985Z,8.77
2022-08-28T07:29:19.244Z,7.85
2022-08-28T07:31:51.961Z,10.45
2022-08-28T07:34:27.141Z,7.60
2022-08-28T07:36:58.156Z,8.30
2022-08-28T07:39:26.478Z,7.90
2022-08-28T07:41:58.003Z,7.15
2022-08-28T07:44:43.661Z,9.75
2022-08-28T07:47:12.711Z,7.88
2022-08-28T07:49:42.215Z,7.50
2022-08-28T07:52:12.215Z,7.47
2022-08-28T07:54:40.815Z,8.10
2022-08-28T07:57:11.259Z,7.63
2022-08-28T07:59:41.085Z,6.72
2022-08-28T08:02:11.402Z,8.95
2022-08-28T08:04:39.976Z,6.10
2022-08-28T08:07:08.918Z,8.75
2022-08-28T08:09:39.228Z,4.90
2022-08-28T08:12:10.186Z,14.50
2022-08-28T08:14:41.951Z,8.13
2022-08-28T08:17:11.526Z,8.80
2022-08-28T08:19:41.395Z,9.02
2022-08-28T08:22:09.810Z,8.20
2022-08-28T08:24:38.034Z,6.47
2022-08-28T08:27:06.868Z,6.95
2022-08-28T08:29:38.688Z,7.57
2022-08-28T08:32:12.465Z,8.00
2022-08-28T08:34:45.819Z,7.47
2022-08-28T08:37:15.258Z,5.20
2022-08-28T08:39:44.763Z,5.63
2022-08-28T08:42:25.403Z,7.90
2022-08-28T08:44:57.553Z,4.97
2022-08-28T08:47:37.618Z,6.55
2022-08-28T08:50:11.564Z,6.03
2022-08-28T08:52:52.902Z,4.43
2022-08-28T08:55:27.220Z,5.85
2022-08-28T08:58:03.744Z,7.28
2022-08-28T09:00:39.291Z,5.22
2022-08-28T09:03:19.439Z,4.95
2022-08-28T09:05:53.343Z,5.13
2022-08-28T09:08:35.072Z,5.50
2022-08-28T09:11:13.491Z,7.63
2022-08-28T09:13:53.498Z,7.78
2022-08-28T09:16:30.593Z,8.32
2022-08-28T09:19:01.633Z,6.35
2022-08-28T09:21:35.206Z,7.80
2022-08-28T09:24:19.828Z,7.13
2022-08-28T09:26:56.322Z,6.03
2022-08-28T09:29:32.974Z,5.00
2022-08-28T09:32:22.479Z,7.80
2022-08-28T09:35:15.196Z,6.25
2022-08-28T09:37:44.933Z,7.10
2022-08-28T09:40:26.140Z,3.88
2022-08-28T09:43:21.401Z,8.15
2022-08-28T09:46:00.572Z,7.32
2022-08-28T09:48:36.160Z,5.18
2022-08-28T09:51:08.152Z,5.38
2022-08-28T09:53:55.036Z,6.32
2022-08-28T09:56:29.734Z,7.00
2022-08-28T09:59:03.137Z,6.10
2022-08-28T10:01:48.842Z,5.40
2022-08-28T10:04:41.476Z,5.95
2022-08-28T10:07:19.385Z,5.32
2022-08-28T10:09:59.782Z,6.28
2022-08-28T10:12:43.333Z,7.18
2022-08-28T10:15:19.033Z,6.72
2022-08-28T10:18:11.726Z,6.38
2022-08-28T10:20:51.121Z,6.63
2022-08-28T10:23:33.087Z,7.68
2022-08-28T10:26:30.155Z,4.75
2022-08-28T10:29:17.074Z,4.97
2022-08-28T10:31:53.731Z,6.93
2022-08-28T10:34:50.705Z,6.32
2022-08-28T10:37:33.157Z,5.30
2022-08-28T10:40:09.810Z,5.03
2022-08-28T10:42:43.841Z,7.18
2022-08-28T10:45:17.160Z,5.65
2022-08-28T10:47:59.513Z,5.63
2022-08-28T10:50:33.683Z,4.82
2022-08-28T10:53:07.953Z,4.95
2022-08-28T10:55:44.587Z,8.15
2022-08-28T10:58:23.777Z,9.43
2022-08-28T11:00:55.310Z,7.57
2022-08-28T11:03:35.451Z,6.57
2022-08-28T11:06:11.496Z,6.40
2022-08-28T11:08:41.239Z,4.38
2022-08-28T11:11:16.232Z,3.85
2022-08-28T11:13:54.919Z,6.40
2022-08-28T11:16:26.760Z,7.18
2022-08-28T11:19:53.392Z,7.43
2022-08-28T11:22:28.682Z,8.45
2022-08-28T11:25:10.791Z,7.13
2022-08-28T11:28:01.500Z,5.85
2022-08-28T11:30:35.640Z,6.75
2022-08-28T11:33:40.494Z,6.68
2022-08-28T11:36:13.359Z,7.18
2022-08-28T11:39:06.746Z,5.45
2022-08-28T11:41:38.516Z,6.97
2022-08-28T11:44:29.275Z,8.98
2022-08-28T11:47:48.154Z,4.07
2022-08-28T11:50:28.346Z,5.20
2022-08-28T11:53:24.663Z,4.85
2022-08-28T11:56:41.556Z,3.70
2022-08-28T11:59:36.954Z,4.35
2022-08-28T12:02:52.076Z,3.58
2022-08-28T12:05:47.085Z,5.30
2022-08-28T12:09:04.067Z,3.97
2022-08-28T12:11:55.872Z,4.68
2022-08-28T12:15:12.424Z,6.72
2022-08-28T12:17:50.684Z,5.38
2022-08-28T12:20:41.143Z,4.35
2022-08-28T12:23:37.890Z,3.92
2022-08-28T12:26:10.778Z,3.45
2022-08-28T12:28:46.272Z,4.57
2022-08-28T12:32:16.057Z,4.65
2022-08-28T12:35:08.683Z,3.10
2022-08-28T12:37:52.454Z,4.75
2022-08-28T12:40:25.766Z,4.78
2022-08-28T12:42:58.270Z,3.08
2022-08-28T12:45:31.851Z,3.80
2022-08-28T12:48:09.074Z,4.43
2022-08-28T12:50:39.838Z,7.00
2022-08-28T12:53:16.294Z,5.75
2022-08-28T12:55:46.660Z,6.25
2022-08-28T12:58:28.903Z,4.85
2022-08-28T13:01:01.210Z,5.93
2022-08-28T13:03:32.390Z,8.15
2022-08-28T13:06:07.021Z,4.88
2022-08-28T13:08:37.860Z,6.65
2022-08-28T13:11:07.032Z,5.47
2022-08-28T13:13:40.067Z,5.65
2022-08-28T13:16:11.518Z,4.60
2022-08-28T13:18:52.172Z,3.53
2022-08-28T13:21:33.548Z,4.65
2022-08-28T13:24:43.901Z,7.40
2022-08-28T13:27:25.022Z,4.55
2022-08-28T13:30:01.292Z,3.45
2022-08-28T13:32:31.856Z,5.32
2022-08-28T13:35:38.109Z,6.15
2022-08-28T13:38:11.780Z,3.83
2022-08-28T13:41:04.170Z,4.85
2022-08-28T13:43:46.776Z,3.17
2022-08-28T13:46:15.590Z,4.30
2022-08-28T13:48:44.347Z,6.85
2022-08-28T13:51:20.843Z,6.43
2022-08-28T13:53:49.792Z,5.40
2022-08-28T13:56:20.005Z,8.43
2022-08-28T13:58:57.661Z,5.90
2022-08-28T14:01:48.520Z,6.10
2022-08-28T14:04:16.424Z,6.78
2022-08-28T14:06:56.667Z,6.53
2022-08-28T14:09:27.098Z,8.02
2022-08-28T14:11:56.839Z,19.75
2022-08-28T14:14:25.226Z,9.40
2022-08-28T14:16:54.831Z,8.73
2022-08-28T14:19:23.858Z,7.25
2022-08-28T14:21:52.244Z,7.75
2022-08-28T14:24:21.324Z,8.90
2022-08-28T14:26:53.389Z,6.82
2022-08-28T14:29:23.589Z,7.50
2022-08-28T14:31:52.094Z,9.15
2022-08-28T14:34:23.797Z,6.15
2022-08-28T14:36:55.342Z,5.45
2022-08-28T14:39:26.174Z,4.32
2022-08-28T14:41:55.547Z,6.93
2022-08-28T14:44:27.118Z,8.93
2022-08-28T14:46:56.084Z,6.15
2022-08-28T14:49:27.411Z,7.72
2022-08-28T14:51:57.066Z,5.40
2022-08-28T14:54:27.732Z,5.38
2022-08-28T14:56:56.694Z,5.40
2022-08-28T14:59:29.556Z,5.95
2022-08-28T15:02:00.301Z,6.43
2022-08-28T15:04:34.899Z,6.78
2022-08-28T15:07:06.942Z,7.70
2022-08-28T15:09:39.440Z,7.10
2022-08-28T15:12:08.458Z,6.57
2022-08-28T15:14:38.708Z,5.70
2022-08-28T15:17:07.420Z,5.72
2022-08-28T15:19:35.972Z,6.82
2022-08-28T15:22:04.349Z,7.63
2022-08-28T15:24:34.660Z,5.43
2022-08-28T15:27:03.800Z,6.28
2022-08-28T15:29:32.121Z,7.57
2022-08-28T15:32:03.774Z,7.47
2022-08-28T15:34:33.040Z,5.15
2022-08-28T15:37:02.278Z,9.13
2022-08-28T15:39:53.911Z,5.80
2022-08-28T15:42:23.224Z,3.83
2022-08-28T15:44:51.609Z,6.18
2022-08-28T15:47:21.481Z,6.55
2022-08-28T15:49:57.171Z,4.47
2022-08-28T15:52:25.567Z,7.95
2022-08-28T15:54:54.495Z,7.28
2022-08-28T15:57:23.221Z,4.65
2022-08-28T15:59:51.772Z,3.67
2022-08-28T16:02:24.897Z,6.00
2022-08-28T16:04:53.761Z,5.97
2022-08-28T16:07:24.767Z,4.95
2022-08-28T16:09:53.729Z,3.42
2022-08-28T16:12:22.829Z,7.10
2022-08-28T16:14:51.356Z,5.07
2022-08-28T16:17:21.054Z,5.30
2022-08-28T16:19:49.462Z,8.27
2022-08-28T16:22:18.753Z,5.15
2022-08-28T16:24:47.894Z,6.43
2022-08-28T16:27:16.704Z,7.47
2022-08-28T16:29:45.868Z,3.15
2022-08-28T16:32:14.201Z,7.70
2022-08-28T16:35:56.919Z,12.80
2022-08-28T16:37:37.718Z,7.63
2022-08-28T16:40:10.629Z,7.72
2022-08-28T16:42:39.563Z,3.55
2022-08-28T16:45:09.455Z,5.82
2022-08-28T16:47:47.150Z,8.82
2022-08-28T16:50:20.111Z,8.27
2022-08-28T16:52:48.543Z,6.40
2022-08-28T16:55:17.475Z,8.15
2022-08-28T16:57:47.409Z,5.95
2022-08-28T17:00:16.534Z,17.75
2022-08-28T17:02:45.706Z,11.77
2022-08-28T17:05:16.102Z,7.85
2022-08-28T17:07:46.474Z,8.40
2022-08-28T17:10:18.759Z,7.55
2022-08-28T17:12:47.411Z,6.30
2022-08-28T17:15:16.240Z,5.85
2022-08-28T17:17:44.829Z,5.15
2022-08-28T17:20:28.825Z,6.82
2022-08-28T17:22:58.583Z,6.32
2022-08-28T17:25:28.394Z,7.75
2022-08-28T17:27:57.550Z,10.43
2022-08-28T17:30:26.737Z,7.78
2022-08-28T17:32:55.780Z,8.73
2022-08-28T17:35:24.406Z,6.72
2022-08-28T17:37:53.846Z,6.53
2022-08-28T17:40:24.259Z,9.25
2022-08-28T17:42:53.521Z,8.40
2022-08-28T17:45:22.609Z,15.27
2022-08-28T17:47:52.843Z,12.52
2022-08-28T17:50:22.606Z,820.22
2022-08-28T17:52:51.574Z,874.70
2022-08-28T17:55:21.373Z,869.25
2022-08-28T17:57:51.189Z,582.17
2022-08-28T18:00:19.566Z,257.58
2022-08-28T18:02:50.604Z,107.20
2022-08-28T18:05:19.458Z,79.25
2022-08-28T18:07:47.772Z,57.72
2022-08-28T18:10:16.464Z,34.92
2022-08-28T18:12:44.770Z,40.78
2022-08-28T18:15:14.922Z,31.45
2022-08-28T18:17:48.378Z,28.67
2022-08-28T18:20:16.703Z,27.27
2022-08-28T18:22:45.297Z,26.65
2022-08-28T18:25:34.477Z,27.42
2022-08-28T18:28:03.952Z,23.90
2022-08-28T18:30:34.653Z,23.00
2022-08-28T18:33:03.671Z,22.27
2022-08-28T18:35:32.451Z,21.92
2022-08-28T18:38:01.614Z,21.73
2022-08-28T18:40:30.520Z,18.75
2022-08-28T18:42:58.970Z,14.80
2022-08-28T18:45:27.819Z,13.35
2022-08-28T18:47:57.453Z,13.75
2022-08-28T18:50:28.282Z,14.32
2022-08-28T18:52:59.158Z,20.58
2022-08-28T18:55:30.999Z,15.10
2022-08-28T18:58:02.252Z,16.75
2022-08-28T19:00:32.158Z,14.48
2022-08-28T19:03:02.797Z,16.73
2022-08-28T19:05:33.709Z,21.27
2022-08-28T19:08:02.299Z,15.93
2022-08-28T19:10:34.490Z,14.48
2022-08-28T19:13:03.976Z,13.32
2022-08-28T19:15:34.301Z,15.27
2022-08-28T19:18:06.365Z,15.40
2022-08-28T19:20:35.625Z,14.93
2022-08-28T19:23:03.886Z,16.63
2022-08-28T19:25:32.367Z,16.88
2022-08-28T19:28:02.547Z,13.40
2022-08-28T19:30:33.833Z,18.02
2022-08-28T19:33:06.413Z,13.77
2022-08-28T19:35:34.901Z,12.80
2022-08-28T19:38:03.503Z,11.60
2022-08-28T19:40:33.675Z,11.70
2022-08-28T19:43:02.507Z,13.23
2022-08-28T19:45:34.105Z,13.82
2022-08-28T19:48:04.365Z,11.75
2022-08-28T19:50:32.916Z,13.27
2022-08-28T19:53:01.270Z,12.88
2022-08-28T19:55:30.429Z,13.40
2022-08-28T19:57:59.270Z,14.40
2022-08-28T20:00:29.514Z,14.02
2022-08-28T20:02:57.967Z,15.55
2022-08-28T20:05:28.006Z,13.80
2022-08-28T20:07:56.475Z,11.25
2022-08-28T20:10:27.489Z,15.65
2022-08-28T20:12:55.755Z,13.90
2022-08-28T20:15:24.987Z,12.77
2022-08-28T20:17:53.272Z,10.65
2022-08-28T20:20:26.727Z,16.13
2022-08-28T20:22:58.983Z,10.70
2022-08-28T20:25:27.555Z,15.82
2022-08-28T20:28:00.954Z,12.10
2022-08-28T20:30:30.556Z,8.77
2022-08-28T20:33:00.922Z,10.35
2022-08-28T20:35:29.816Z,7.85
2022-08-28T20:37:59.556Z,12.68
2022-08-28T20:40:28.578Z,10.55
2022-08-28T20:42:57.064Z,9.38
2022-08-28T20:45:25.668Z,10.65
2022-08-28T20:47:54.392Z,12.10
2022-08-28T20:50:23.402Z,10.15
2022-08-28T20:52:52.126Z,11.55
2022-08-28T20:55:22.474Z,15.60
2022-08-28T20:57:51.069Z,12.57
2022-08-28T21:00:19.361Z,9.20
2022-08-28T21:02:48.160Z,15.32
2022-08-28T21:05:16.529Z,10.85
2022-08-28T21:07:44.951Z,9.88
2022-08-28T21:10:13.269Z,9.77
2022-08-28T21:12:44.092Z,12.20
2022-08-28T21:15:14.464Z,13.43
2022-08-28T21:17:43.438Z,11.88
2022-08-28T21:20:16.107Z,13.10
2022-08-28T21:22:45.107Z,9.75
2022-08-28T21:25:15.576Z,7.15
2022-08-28T21:27:45.584Z,5.47
2022-08-28T21:30:18.054Z,6.18
2022-08-28T21:32:47.443Z,7.55
2022-08-28T21:35:19.011Z,5.18
2022-08-28T21:37:47.509Z,6.97
2022-08-28T21:40:16.705Z,7.03
2022-08-28T21:42:46.452Z,7.72
2022-08-28T21:45:15.053Z,6.10
2022-08-28T21:47:44.040Z,5.70
2022-08-28T21:50:12.774Z,4.57
2022-08-28T21:52:41.592Z,6.18
2022-08-28T21:55:13.412Z,6.57
2022-08-28T21:58:08.358Z,6.45
2022-08-28T22:00:39.402Z,5.72
2022-08-28T22:03:08.108Z,5.70
2022-08-28T22:05:39.088Z,6.05
2022-08-28T22:08:07.533Z,7.63
2022-08-28T22:10:40.291Z,6.50
2022-08-28T22:13:12.244Z,6.03
2022-08-28T22:15:41.799Z,6.13
2022-08-28T22:18:12.392Z,6.10
2022-08-28T22:20:58.308Z,5.90
2022-08-28T22:23:27.805Z,6.65
2022-08-28T22:25:56.448Z,5.40
2022-08-28T22:28:26.167Z,4.53
2022-08-28T22:30:54.715Z,5.40
2022-08-28T22:33:23.772Z,5.95
2022-08-28T22:35:53.250Z,5.35
2022-08-28T22:38:22.688Z,5.15
2022-08-28T22:40:51.563Z,4.85
2022-08-28T22:43:20.764Z,4.88
2022-08-28T22:45:50.596Z,5.80
2022-08-28T22:48:20.249Z,6.05
2022-08-28T22:50:49.884Z,6.05
2022-08-28T22:53:18.713Z,6.68
2022-08-28T22:55:47.077Z,6.95
2022-08-28T22:58:15.504Z,7.65
2022-08-28T23:00:43.887Z,9.55
2022-08-28T23:03:13.571Z,8.55
2022-08-28T23:05:41.933Z,6.35
2022-08-28T23:08:10.866Z,6.15
2022-08-28T23:10:58.047Z,7.50
2022-08-28T23:13:27.251Z,9.73
2022-08-28T23:15:55.926Z,7.32
2022-08-28T23:18:26.162Z,7.18
2022-08-28T23:20:56.734Z,10.82
2022-08-28T23:23:26.543Z,7.20
2022-08-28T23:25:54.884Z,4.07
2022-08-28T23:28:23.401Z,6.05
2022-08-28T23:30:52.016Z,6.97
2022-08-28T23:33:23.834Z,5.53
2022-08-28T23:35:54.048Z,7.63
2022-08-28T23:38:22.436Z,5.88
2022-08-28T23:40:50.872Z,7.72
2022-08-28T23:43:19.519Z,5.18
2022-08-28T23:45:48.498Z,5.45
2022-08-28T23:48:16.931Z,6.07
2022-08-28T23:50:45.562Z,4.80
2022-08-28T23:53:16.610Z,5.93
2022-08-28T23:55:45.833Z,5.10
2022-08-28T23:58:17.375Z,6.57
